sensor_id;sensor_type;location;lat;lon;timestamp;temperature;humidity
13458;DHT22;6801;53.018;11.560;2023-03-05T00:01:27;3.80;68.20
13458;DHT22;6801;53.018;11.560;2023-03-05T00:03:55;3.80;68.30
13458;DHT22;6801;53.018;11.560;2023-03-05T00:06:24;3.80;68.10
13458;DHT22;6801;53.018;11.560;2023-03-05T00:08:52;3.80;68.20
13458;DHT22;6801;53.018;11.560;2023-03-05T00:11:22;3.80;68.40
13458;DHT22;6801;53.018;11.560;2023-03-05T00:13:50;3.80;68.10
13458;DHT22;6801;53.018;11.560;2023-03-05T00:16:20;3.90;68.40
13458;DHT22;6801;53.018;11.560;2023-03-05T00:18:48;3.90;68.30
13458;DHT22;6801;53.018;11.560;2023-03-05T00:21:21;3.80;67.40
13458;DHT22;6801;53.018;11.560;2023-03-05T00:23:49;3.90;67.50
13458;DHT22;6801;53.018;11.560;2023-03-05T00:26:17;3.80;67.70
13458;DHT22;6801;53.018;11.560;2023-03-05T00:28:44;3.80;68.30
13458;DHT22;6801;53.018;11.560;2023-03-05T00:31:14;3.80;67.80
13458;DHT22;6801;53.018;11.560;2023-03-05T00:33:43;3.80;68.00
13458;DHT22;6801;53.018;11.560;2023-03-05T00:36:10;3.80;67.90
13458;DHT22;6801;53.018;11.560;2023-03-05T00:38:37;3.80;68.10
13458;DHT22;6801;53.018;11.560;2023-03-05T00:41:04;3.80;68.30
13458;DHT22;6801;53.018;11.560;2023-03-05T00:43:31;3.70;68.30
13458;DHT22;6801;53.018;11.560;2023-03-05T00:45:58;3.80;68.70
13458;DHT22;6801;53.018;11.560;2023-03-05T00:48:25;3.70;69.00
13458;DHT22;6801;53.018;11.560;2023-03-05T00:50:53;3.80;69.00
13458;DHT22;6801;53.018;11.560;2023-03-05T00:53:20;3.80;68.60
13458;DHT22;6801;53.018;11.560;2023-03-05T00:55:47;3.90;68.70
13458;DHT22;6801;53.018;11.560;2023-03-05T00:58:14;3.90;69.00
13458;DHT22;6801;53.018;11.560;2023-03-05T01:00:41;3.90;68.90
13458;DHT22;6801;53.018;11.560;2023-03-05T01:03:08;3.90;69.10
13458;DHT22;6801;53.018;11.560;2023-03-05T01:05:35;3.90;68.90
13458;DHT22;6801;53.018;11.560;2023-03-05T01:08:04;3.90;68.90
13458;DHT22;6801;53.018;11.560;2023-03-05T01:10:31;3.90;68.80
13458;DHT22;6801;53.018;11.560;2023-03-05T01:12:58;3.90;69.30
13458;DHT22;6801;53.018;11.560;2023-03-05T01:15:26;4.00;69.10
13458;DHT22;6801;53.018;11.560;2023-03-05T01:17:53;4.00;69.30
13458;DHT22;6801;53.018;11.560;2023-03-05T01:20:21;4.00;69.60
13458;DHT22;6801;53.018;11.560;2023-03-05T01:22:48;4.00;69.20
13458;DHT22;6801;53.018;11.560;2023-03-05T01:25:17;3.90;69.20
13458;DHT22;6801;53.018;11.560;2023-03-05T01:27:44;3.90;69.40
13458;DHT22;6801;53.018;11.560;2023-03-05T01:30:13;3.90;69.20
13458;DHT22;6801;53.018;11.560;2023-03-05T01:32:40;3.90;69.40
13458;DHT22;6801;53.018;11.560;2023-03-05T01:35:09;3.90;69.60
13458;DHT22;6801;53.018;11.560;2023-03-05T01:37:40;3.90;69.90
13458;DHT22;6801;53.018;11.560;2023-03-05T01:40:09;3.80;70.00
13458;DHT22;6801;53.018;11.560;2023-03-05T01:42:37;3.80;69.80
13458;DHT22;6801;53.018;11.560;2023-03-05T01:45:09;3.80;70.20
13458;DHT22;6801;53.018;11.560;2023-03-05T01:47:37;3.80;69.90
13458;DHT22;6801;53.018;11.560;2023-03-05T01:50:06;3.90;70.20
13458;DHT22;6801;53.018;11.560;2023-03-05T01:52:35;3.80;70.10
13458;DHT22;6801;53.018;11.560;2023-03-05T01:55:07;3.80;70.30
13458;DHT22;6801;53.018;11.560;2023-03-05T01:57:37;3.80;70.30
13458;DHT22;6801;53.018;11.560;2023-03-05T02:00:10;3.80;70.40
13458;DHT22;6801;53.018;11.560;2023-03-05T02:02:40;3.80;70.60
13458;DHT22;6801;53.018;11.560;2023-03-05T02:05:10;3.80;70.70
13458;DHT22;6801;53.018;11.560;2023-03-05T02:07:38;3.80;71.00
13458;DHT22;6801;53.018;11.560;2023-03-05T02:10:15;3.80;71.10
13458;DHT22;6801;53.018;11.560;2023-03-05T02:12:44;3.80;71.20
13458;DHT22;6801;53.018;11.560;2023-03-05T02:15:11;3.80;71.30
13458;DHT22;6801;53.018;11.560;2023-03-05T02:17:38;3.80;71.30
13458;DHT22;6801;53.018;11.560;2023-03-05T02:20:08;3.70;71.60
13458;DHT22;6801;53.018;11.560;2023-03-05T02:22:37;3.80;71.70
13458;DHT22;6801;53.018;11.560;2023-03-05T02:25:12;3.80;71.70
13458;DHT22;6801;53.018;11.560;2023-03-05T02:27:40;3.70;71.80
13458;DHT22;6801;53.018;11.560;2023-03-05T02:30:09;3.80;71.80
13458;DHT22;6801;53.018;11.560;2023-03-05T02:32:37;3.80;71.90
13458;DHT22;6801;53.018;11.560;2023-03-05T02:35:05;3.70;72.00
13458;DHT22;6801;53.018;11.560;2023-03-05T02:37:33;3.70;72.10
13458;DHT22;6801;53.018;11.560;2023-03-05T02:40:01;3.70;72.20
13458;DHT22;6801;53.018;11.560;2023-03-05T02:42:28;3.70;72.20
13458;DHT22;6801;53.018;11.560;2023-03-05T02:44:59;3.60;72.30
13458;DHT22;6801;53.018;11.560;2023-03-05T02:47:27;3.70;72.50
13458;DHT22;6801;53.018;11.560;2023-03-05T02:49:55;3.70;72.20
13458;DHT22;6801;53.018;11.560;2023-03-05T02:52:22;3.60;72.30
13458;DHT22;6801;53.018;11.560;2023-03-05T02:54:51;3.70;72.50
13458;DHT22;6801;53.018;11.560;2023-03-05T02:57:20;3.70;72.50
13458;DHT22;6801;53.018;11.560;2023-03-05T02:59:47;3.70;72.40
13458;DHT22;6801;53.018;11.560;2023-03-05T03:02:14;3.60;72.40
13458;DHT22;6801;53.018;11.560;2023-03-05T03:04:42;3.60;72.50
13458;DHT22;6801;53.018;11.560;2023-03-05T03:07:09;3.60;72.50
13458;DHT22;6801;53.018;11.560;2023-03-05T03:09:36;3.60;72.60
13458;DHT22;6801;53.018;11.560;2023-03-05T03:12:04;3.60;72.50
13458;DHT22;6801;53.018;11.560;2023-03-05T03:14:36;3.70;72.50
13458;DHT22;6801;53.018;11.560;2023-03-05T03:17:04;3.70;72.50
13458;DHT22;6801;53.018;11.560;2023-03-05T03:19:31;3.70;72.50
13458;DHT22;6801;53.018;11.560;2023-03-05T03:21:58;3.60;72.70
13458;DHT22;6801;53.018;11.560;2023-03-05T03:24:25;3.60;72.90
13458;DHT22;6801;53.018;11.560;2023-03-05T03:26:52;3.60;73.00
13458;DHT22;6801;53.018;11.560;2023-03-05T03:29:19;3.60;73.00
13458;DHT22;6801;53.018;11.560;2023-03-05T03:31:48;3.60;73.20
13458;DHT22;6801;53.018;11.560;2023-03-05T03:34:15;3.50;73.60
13458;DHT22;6801;53.018;11.560;2023-03-05T03:36:43;3.60;73.50
13458;DHT22;6801;53.018;11.560;2023-03-05T03:39:10;3.60;73.30
13458;DHT22;6801;53.018;11.560;2023-03-05T03:41:40;3.50;73.40
13458;DHT22;6801;53.018;11.560;2023-03-05T03:44:07;3.60;73.40
13458;DHT22;6801;53.018;11.560;2023-03-05T03:46:35;3.50;73.60
13458;DHT22;6801;53.018;11.560;2023-03-05T03:49:04;3.50;73.60
13458;DHT22;6801;53.018;11.560;2023-03-05T03:51:32;3.50;73.70
13458;DHT22;6801;53.018;11.560;2023-03-05T03:53:59;3.50;73.80
13458;DHT22;6801;53.018;11.560;2023-03-05T03:56:26;3.60;73.70
13458;DHT22;6801;53.018;11.560;2023-03-05T03:58:53;3.50;73.60
13458;DHT22;6801;53.018;11.560;2023-03-05T04:01:20;3.50;73.70
13458;DHT22;6801;53.018;11.560;2023-03-05T04:03:47;3.50;73.80
13458;DHT22;6801;53.018;11.560;2023-03-05T04:06:15;3.50;73.80
13458;DHT22;6801;53.018;11.560;2023-03-05T04:08:42;3.60;73.80
13458;DHT22;6801;53.018;11.560;2023-03-05T04:11:09;3.50;74.00
13458;DHT22;6801;53.018;11.560;2023-03-05T04:13:36;3.50;73.90
13458;DHT22;6801;53.018;11.560;2023-03-05T04:16:04;3.50;74.10
13458;DHT22;6801;53.018;11.560;2023-03-05T04:18:31;3.50;74.00
13458;DHT22;6801;53.018;11.560;2023-03-05T04:20:57;3.50;74.10
13458;DHT22;6801;53.018;11.560;2023-03-05T04:23:26;3.50;74.10
13458;DHT22;6801;53.018;11.560;2023-03-05T04:25:53;3.50;74.10
13458;DHT22;6801;53.018;11.560;2023-03-05T04:28:20;3.40;74.20
13458;DHT22;6801;53.018;11.560;2023-03-05T04:30:47;3.30;74.20
13458;DHT22;6801;53.018;11.560;2023-03-05T04:33:14;3.30;74.20
13458;DHT22;6801;53.018;11.560;2023-03-05T04:35:41;3.40;74.10
13458;DHT22;6801;53.018;11.560;2023-03-05T04:38:08;3.30;74.10
13458;DHT22;6801;53.018;11.560;2023-03-05T04:40:36;3.30;74.20
13458;DHT22;6801;53.018;11.560;2023-03-05T04:43:04;3.20;74.10
13458;DHT22;6801;53.018;11.560;2023-03-05T04:45:31;3.30;74.10
13458;DHT22;6801;53.018;11.560;2023-03-05T04:47:59;3.30;74.00
13458;DHT22;6801;53.018;11.560;2023-03-05T04:50:26;3.30;73.90
13458;DHT22;6801;53.018;11.560;2023-03-05T04:52:53;3.30;74.00
13458;DHT22;6801;53.018;11.560;2023-03-05T04:55:20;3.30;73.80
13458;DHT22;6801;53.018;11.560;2023-03-05T04:57:48;3.30;73.90
13458;DHT22;6801;53.018;11.560;2023-03-05T05:00:16;3.30;73.60
13458;DHT22;6801;53.018;11.560;2023-03-05T05:02:45;3.30;73.30
13458;DHT22;6801;53.018;11.560;2023-03-05T05:05:14;3.30;73.60
13458;DHT22;6801;53.018;11.560;2023-03-05T05:07:42;3.30;73.60
13458;DHT22;6801;53.018;11.560;2023-03-05T05:10:10;3.30;73.70
13458;DHT22;6801;53.018;11.560;2023-03-05T05:12:37;3.30;73.70
13458;DHT22;6801;53.018;11.560;2023-03-05T05:15:07;3.30;73.80
13458;DHT22;6801;53.018;11.560;2023-03-05T05:17:35;3.20;73.90
13458;DHT22;6801;53.018;11.560;2023-03-05T05:20:02;3.20;74.00
13458;DHT22;6801;53.018;11.560;2023-03-05T05:22:32;3.30;74.10
13458;DHT22;6801;53.018;11.560;2023-03-05T05:24:59;3.30;74.00
13458;DHT22;6801;53.018;11.560;2023-03-05T05:27:26;3.30;74.10
13458;DHT22;6801;53.018;11.560;2023-03-05T05:29:53;3.20;74.10
13458;DHT22;6801;53.018;11.560;2023-03-05T05:32:22;3.20;74.20
13458;DHT22;6801;53.018;11.560;2023-03-05T05:34:53;3.20;74.30
13458;DHT22;6801;53.018;11.560;2023-03-05T05:37:20;3.20;74.30
13458;DHT22;6801;53.018;11.560;2023-03-05T05:39:47;3.20;74.40
13458;DHT22;6801;53.018;11.560;2023-03-05T05:42:15;3.20;74.40
13458;DHT22;6801;53.018;11.560;2023-03-05T05:44:42;3.10;74.30
13458;DHT22;6801;53.018;11.560;2023-03-05T05:47:10;3.20;74.40
13458;DHT22;6801;53.018;11.560;2023-03-05T05:49:38;3.20;74.40
13458;DHT22;6801;53.018;11.560;2023-03-05T05:52:05;3.20;74.30
13458;DHT22;6801;53.018;11.560;2023-03-05T05:54:33;3.20;74.40
13458;DHT22;6801;53.018;11.560;2023-03-05T05:57:00;3.20;74.40
13458;DHT22;6801;53.018;11.560;2023-03-05T05:59:27;3.20;74.20
13458;DHT22;6801;53.018;11.560;2023-03-05T06:01:54;3.20;74.30
13458;DHT22;6801;53.018;11.560;2023-03-05T06:04:21;3.20;74.40
13458;DHT22;6801;53.018;11.560;2023-03-05T06:06:49;3.20;74.40
13458;DHT22;6801;53.018;11.560;2023-03-05T06:09:16;3.20;74.40
13458;DHT22;6801;53.018;11.560;2023-03-05T06:11:43;3.20;74.40
13458;DHT22;6801;53.018;11.560;2023-03-05T06:14:11;3.20;74.60
13458;DHT22;6801;53.018;11.560;2023-03-05T06:16:39;3.20;74.60
13458;DHT22;6801;53.018;11.560;2023-03-05T06:19:07;3.20;74.50
13458;DHT22;6801;53.018;11.560;2023-03-05T06:21:34;3.20;74.40
13458;DHT22;6801;53.018;11.560;2023-03-05T06:24:03;3.30;74.50
13458;DHT22;6801;53.018;11.560;2023-03-05T06:26:31;3.30;74.50
13458;DHT22;6801;53.018;11.560;2023-03-05T06:28:58;3.20;74.50
13458;DHT22;6801;53.018;11.560;2023-03-05T06:31:26;3.20;74.60
13458;DHT22;6801;53.018;11.560;2023-03-05T06:33:55;3.20;74.70
13458;DHT22;6801;53.018;11.560;2023-03-05T06:36:24;3.30;74.80
13458;DHT22;6801;53.018;11.560;2023-03-05T06:38:52;3.20;74.90
13458;DHT22;6801;53.018;11.560;2023-03-05T06:41:22;3.30;74.90
13458;DHT22;6801;53.018;11.560;2023-03-05T06:43:49;3.20;75.10
13458;DHT22;6801;53.018;11.560;2023-03-05T06:46:18;3.30;75.20
13458;DHT22;6801;53.018;11.560;2023-03-05T06:48:46;3.30;75.20
13458;DHT22;6801;53.018;11.560;2023-03-05T06:51:16;3.30;75.10
13458;DHT22;6801;53.018;11.560;2023-03-05T06:53:44;3.40;75.10
13458;DHT22;6801;53.018;11.560;2023-03-05T06:56:12;3.30;75.10
13458;DHT22;6801;53.018;11.560;2023-03-05T06:58:43;3.40;75.10
13458;DHT22;6801;53.018;11.560;2023-03-05T07:01:12;3.40;75.10
13458;DHT22;6801;53.018;11.560;2023-03-05T07:03:39;3.40;75.20
13458;DHT22;6801;53.018;11.560;2023-03-05T07:06:08;3.40;75.10
13458;DHT22;6801;53.018;11.560;2023-03-05T07:08:36;3.40;75.10
13458;DHT22;6801;53.018;11.560;2023-03-05T07:11:08;3.40;75.20
13458;DHT22;6801;53.018;11.560;2023-03-05T07:13:35;3.40;75.30
13458;DHT22;6801;53.018;11.560;2023-03-05T07:16:06;3.40;75.20
13458;DHT22;6801;53.018;11.560;2023-03-05T07:18:33;3.50;75.30
13458;DHT22;6801;53.018;11.560;2023-03-05T07:21:04;3.50;75.20
13458;DHT22;6801;53.018;11.560;2023-03-05T07:23:32;3.50;75.10
13458;DHT22;6801;53.018;11.560;2023-03-05T07:26:00;3.50;75.10
13458;DHT22;6801;53.018;11.560;2023-03-05T07:28:26;3.50;75.30
13458;DHT22;6801;53.018;11.560;2023-03-05T07:30:55;3.50;75.30
13458;DHT22;6801;53.018;11.560;2023-03-05T07:33:24;3.50;75.30
13458;DHT22;6801;53.018;11.560;2023-03-05T07:35:51;3.50;75.20
13458;DHT22;6801;53.018;11.560;2023-03-05T07:38:18;3.50;75.10
13458;DHT22;6801;53.018;11.560;2023-03-05T07:40:45;3.60;75.10
13458;DHT22;6801;53.018;11.560;2023-03-05T07:43:12;3.60;75.00
13458;DHT22;6801;53.018;11.560;2023-03-05T07:45:39;3.60;74.90
13458;DHT22;6801;53.018;11.560;2023-03-05T07:48:07;3.50;75.00
13458;DHT22;6801;53.018;11.560;2023-03-05T07:50:35;3.50;75.20
13458;DHT22;6801;53.018;11.560;2023-03-05T07:53:02;3.50;75.20
13458;DHT22;6801;53.018;11.560;2023-03-05T07:55:29;3.60;75.10
13458;DHT22;6801;53.018;11.560;2023-03-05T07:57:56;3.70;75.10
13458;DHT22;6801;53.018;11.560;2023-03-05T08:00:23;3.70;74.90
13458;DHT22;6801;53.018;11.560;2023-03-05T08:02:50;3.70;75.00
13458;DHT22;6801;53.018;11.560;2023-03-05T08:05:17;3.70;75.00
13458;DHT22;6801;53.018;11.560;2023-03-05T08:07:45;3.80;75.00
13458;DHT22;6801;53.018;11.560;2023-03-05T08:10:12;3.70;75.00
13458;DHT22;6801;53.018;11.560;2023-03-05T08:12:39;3.70;75.10
13458;DHT22;6801;53.018;11.560;2023-03-05T08:15:07;3.90;75.00
13458;DHT22;6801;53.018;11.560;2023-03-05T08:17:34;3.90;74.70
13458;DHT22;6801;53.018;11.560;2023-03-05T08:20:01;3.80;74.60
13458;DHT22;6801;53.018;11.560;2023-03-05T08:22:32;3.80;74.80
13458;DHT22;6801;53.018;11.560;2023-03-05T08:25:02;3.80;74.50
13458;DHT22;6801;53.018;11.560;2023-03-05T08:27:29;3.90;74.50
13458;DHT22;6801;53.018;11.560;2023-03-05T08:29:56;3.90;74.30
13458;DHT22;6801;53.018;11.560;2023-03-05T08:32:23;4.00;74.40
13458;DHT22;6801;53.018;11.560;2023-03-05T08:34:50;4.00;74.00
13458;DHT22;6801;53.018;11.560;2023-03-05T08:37:21;4.10;73.80
13458;DHT22;6801;53.018;11.560;2023-03-05T08:39:48;4.00;72.50
13458;DHT22;6801;53.018;11.560;2023-03-05T08:42:16;4.00;72.80
13458;DHT22;6801;53.018;11.560;2023-03-05T08:44:44;4.00;73.30
13458;DHT22;6801;53.018;11.560;2023-03-05T08:47:10;4.10;73.30
13458;DHT22;6801;53.018;11.560;2023-03-05T08:49:37;4.10;73.20
13458;DHT22;6801;53.018;11.560;2023-03-05T08:52:04;4.20;73.40
13458;DHT22;6801;53.018;11.560;2023-03-05T08:54:32;4.20;72.20
13458;DHT22;6801;53.018;11.560;2023-03-05T08:56:59;4.20;72.10
13458;DHT22;6801;53.018;11.560;2023-03-05T08:59:27;4.30;72.40
13458;DHT22;6801;53.018;11.560;2023-03-05T09:01:54;4.30;72.80
13458;DHT22;6801;53.018;11.560;2023-03-05T09:04:21;4.30;71.90
13458;DHT22;6801;53.018;11.560;2023-03-05T09:06:48;4.40;72.10
13458;DHT22;6801;53.018;11.560;2023-03-05T09:09:15;4.40;71.70
13458;DHT22;6801;53.018;11.560;2023-03-05T09:11:45;4.30;71.20
13458;DHT22;6801;53.018;11.560;2023-03-05T09:14:12;4.40;70.60
13458;DHT22;6801;53.018;11.560;2023-03-05T09:16:40;4.50;71.50
13458;DHT22;6801;53.018;11.560;2023-03-05T09:19:07;4.60;71.30
13458;DHT22;6801;53.018;11.560;2023-03-05T09:21:35;4.60;71.30
13458;DHT22;6801;53.018;11.560;2023-03-05T09:24:02;4.70;71.30
13458;DHT22;6801;53.018;11.560;2023-03-05T09:26:29;4.60;70.60
13458;DHT22;6801;53.018;11.560;2023-03-05T09:28:56;4.70;71.30
13458;DHT22;6801;53.018;11.560;2023-03-05T09:31:23;4.70;71.40
13458;DHT22;6801;53.018;11.560;2023-03-05T09:33:52;4.70;71.30
13458;DHT22;6801;53.018;11.560;2023-03-05T09:36:20;4.80;70.80
13458;DHT22;6801;53.018;11.560;2023-03-05T09:38:48;4.70;70.10
13458;DHT22;6801;53.018;11.560;2023-03-05T09:41:20;4.60;70.10
13458;DHT22;6801;53.018;11.560;2023-03-05T09:43:56;4.70;70.40
13458;DHT22;6801;53.018;11.560;2023-03-05T09:46:36;4.70;70.20
13458;DHT22;6801;53.018;11.560;2023-03-05T09:49:15;4.80;70.20
13458;DHT22;6801;53.018;11.560;2023-03-05T09:51:44;4.80;70.70
13458;DHT22;6801;53.018;11.560;2023-03-05T09:54:18;4.90;70.00
13458;DHT22;6801;53.018;11.560;2023-03-05T09:56:49;4.90;68.70
13458;DHT22;6801;53.018;11.560;2023-03-05T09:59:22;4.90;69.30
13458;DHT22;6801;53.018;11.560;2023-03-05T10:01:52;4.90;69.90
13458;DHT22;6801;53.018;11.560;2023-03-05T10:04:24;5.00;70.00
13458;DHT22;6801;53.018;11.560;2023-03-05T10:06:57;5.00;70.20
13458;DHT22;6801;53.018;11.560;2023-03-05T10:09:36;4.90;68.50
13458;DHT22;6801;53.018;11.560;2023-03-05T10:12:09;5.00;69.00
13458;DHT22;6801;53.018;11.560;2023-03-05T10:14:39;4.90;68.40
13458;DHT22;6801;53.018;11.560;2023-03-05T10:17:35;5.00;68.70
13458;DHT22;6801;53.018;11.560;2023-03-05T10:20:29;5.10;68.20
13458;DHT22;6801;53.018;11.560;2023-03-05T10:23:10;5.10;67.80
13458;DHT22;6801;53.018;11.560;2023-03-05T10:25:46;5.10;67.60
13458;DHT22;6801;53.018;11.560;2023-03-05T10:28:17;5.10;67.60
13458;DHT22;6801;53.018;11.560;2023-03-05T10:31:14;5.20;68.00
13458;DHT22;6801;53.018;11.560;2023-03-05T10:33:55;5.20;66.80
13458;DHT22;6801;53.018;11.560;2023-03-05T10:37:00;5.30;68.00
13458;DHT22;6801;53.018;11.560;2023-03-05T10:39:49;5.30;68.00
13458;DHT22;6801;53.018;11.560;2023-03-05T10:42:26;5.30;67.00
13458;DHT22;6801;53.018;11.560;2023-03-05T10:44:56;5.30;66.80
13458;DHT22;6801;53.018;11.560;2023-03-05T10:47:25;5.30;67.90
13458;DHT22;6801;53.018;11.560;2023-03-05T10:49:55;5.30;67.10
13458;DHT22;6801;53.018;11.560;2023-03-05T10:52:30;5.30;66.10
13458;DHT22;6801;53.018;11.560;2023-03-05T10:54:58;5.40;66.20
13458;DHT22;6801;53.018;11.560;2023-03-05T10:57:27;5.40;66.00
13458;DHT22;6801;53.018;11.560;2023-03-05T11:00:00;5.50;67.30
13458;DHT22;6801;53.018;11.560;2023-03-05T11:02:32;5.50;67.30
13458;DHT22;6801;53.018;11.560;2023-03-05T11:04:59;5.60;67.10
13458;DHT22;6801;53.018;11.560;2023-03-05T11:07:36;5.60;67.60
13458;DHT22;6801;53.018;11.560;2023-03-05T11:10:15;5.60;65.80
13458;DHT22;6801;53.018;11.560;2023-03-05T11:12:43;5.60;66.60
13458;DHT22;6801;53.018;11.560;2023-03-05T11:15:27;5.60;65.80
13458;DHT22;6801;53.018;11.560;2023-03-05T11:18:17;5.70;66.10
13458;DHT22;6801;53.018;11.560;2023-03-05T11:20:46;5.60;66.50
13458;DHT22;6801;53.018;11.560;2023-03-05T11:23:15;5.60;64.80
13458;DHT22;6801;53.018;11.560;2023-03-05T11:25:58;5.60;65.60
13458;DHT22;6801;53.018;11.560;2023-03-05T11:28:31;5.60;66.70
13458;DHT22;6801;53.018;11.560;2023-03-05T11:31:05;5.60;67.50
13458;DHT22;6801;53.018;11.560;2023-03-05T11:33:34;5.60;67.90
13458;DHT22;6801;53.018;11.560;2023-03-05T11:36:27;5.60;68.20
13458;DHT22;6801;53.018;11.560;2023-03-05T11:38:57;5.60;68.20
13458;DHT22;6801;53.018;11.560;2023-03-05T11:41:38;5.60;68.40
13458;DHT22;6801;53.018;11.560;2023-03-05T11:44:10;5.60;68.80
13458;DHT22;6801;53.018;11.560;2023-03-05T11:46:42;5.50;68.80
13458;DHT22;6801;53.018;11.560;2023-03-05T11:49:14;5.50;68.90
13458;DHT22;6801;53.018;11.560;2023-03-05T11:51:44;5.50;68.70
13458;DHT22;6801;53.018;11.560;2023-03-05T11:54:18;5.40;69.00
13458;DHT22;6801;53.018;11.560;2023-03-05T11:56:46;5.40;69.30
13458;DHT22;6801;53.018;11.560;2023-03-05T11:59:18;5.50;69.50
13458;DHT22;6801;53.018;11.560;2023-03-05T12:01:49;5.50;69.70
13458;DHT22;6801;53.018;11.560;2023-03-05T12:04:17;5.50;69.80
13458;DHT22;6801;53.018;11.560;2023-03-05T12:06:46;5.50;69.90
13458;DHT22;6801;53.018;11.560;2023-03-05T12:09:22;5.60;69.90
13458;DHT22;6801;53.018;11.560;2023-03-05T12:11:56;5.60;69.90
13458;DHT22;6801;53.018;11.560;2023-03-05T12:14:31;5.60;69.80
13458;DHT22;6801;53.018;11.560;2023-03-05T12:17:06;5.70;69.50
13458;DHT22;6801;53.018;11.560;2023-03-05T12:19:42;5.70;69.60
13458;DHT22;6801;53.018;11.560;2023-03-05T12:22:16;5.60;69.60
13458;DHT22;6801;53.018;11.560;2023-03-05T12:24:46;5.60;69.80
13458;DHT22;6801;53.018;11.560;2023-03-05T12:27:31;5.50;69.80
13458;DHT22;6801;53.018;11.560;2023-03-05T12:29:58;5.30;69.90
13458;DHT22;6801;53.018;11.560;2023-03-05T12:32:57;5.30;70.20
13458;DHT22;6801;53.018;11.560;2023-03-05T12:35:40;5.20;70.40
13458;DHT22;6801;53.018;11.560;2023-03-05T12:38:28;5.10;70.60
13458;DHT22;6801;53.018;11.560;2023-03-05T12:44:17;5.00;71.00
13458;DHT22;6801;53.018;11.560;2023-03-05T12:49:27;5.00;71.50
13458;DHT22;6801;53.018;11.560;2023-03-05T12:51:55;5.00;71.70
13458;DHT22;6801;53.018;11.560;2023-03-05T12:54:33;5.00;71.80
13458;DHT22;6801;53.018;11.560;2023-03-05T12:57:02;5.00;72.00
13458;DHT22;6801;53.018;11.560;2023-03-05T12:59:41;5.00;72.10
13458;DHT22;6801;53.018;11.560;2023-03-05T13:02:21;5.00;72.20
13458;DHT22;6801;53.018;11.560;2023-03-05T13:04:49;5.00;72.40
13458;DHT22;6801;53.018;11.560;2023-03-05T13:07:17;5.00;72.50
13458;DHT22;6801;53.018;11.560;2023-03-05T13:09:52;5.00;72.60
13458;DHT22;6801;53.018;11.560;2023-03-05T13:12:20;5.10;72.60
13458;DHT22;6801;53.018;11.560;2023-03-05T13:14:56;5.20;72.70
13458;DHT22;6801;53.018;11.560;2023-03-05T13:17:30;5.30;72.70
13458;DHT22;6801;53.018;11.560;2023-03-05T13:19:59;5.30;72.70
13458;DHT22;6801;53.018;11.560;2023-03-05T13:22:27;5.30;72.00
13458;DHT22;6801;53.018;11.560;2023-03-05T13:25:08;5.30;71.90
13458;DHT22;6801;53.018;11.560;2023-03-05T13:27:38;5.30;72.10
13458;DHT22;6801;53.018;11.560;2023-03-05T13:30:19;5.40;72.50
13458;DHT22;6801;53.018;11.560;2023-03-05T13:32:49;5.40;72.20
13458;DHT22;6801;53.018;11.560;2023-03-05T13:35:17;5.50;72.10
13458;DHT22;6801;53.018;11.560;2023-03-05T13:37:45;5.50;71.90
13458;DHT22;6801;53.018;11.560;2023-03-05T13:40:21;5.50;71.90
13458;DHT22;6801;53.018;11.560;2023-03-05T13:42:48;5.50;71.80
13458;DHT22;6801;53.018;11.560;2023-03-05T13:45:24;5.60;72.20
13458;DHT22;6801;53.018;11.560;2023-03-05T13:47:53;5.70;72.20
13458;DHT22;6801;53.018;11.560;2023-03-05T13:50:23;5.80;72.00
13458;DHT22;6801;53.018;11.560;2023-03-05T13:52:51;5.80;71.20
13458;DHT22;6801;53.018;11.560;2023-03-05T13:55:19;5.70;70.30
13458;DHT22;6801;53.018;11.560;2023-03-05T13:57:47;5.80;71.20
13458;DHT22;6801;53.018;11.560;2023-03-05T14:00:29;5.80;70.50
13458;DHT22;6801;53.018;11.560;2023-03-05T14:02:59;5.70;69.10
13458;DHT22;6801;53.018;11.560;2023-03-05T14:05:27;5.70;70.30
13458;DHT22;6801;53.018;11.560;2023-03-05T14:07:55;5.70;70.40
13458;DHT22;6801;53.018;11.560;2023-03-05T14:10:30;5.70;70.80
13458;DHT22;6801;53.018;11.560;2023-03-05T14:12:57;5.70;70.80
13458;DHT22;6801;53.018;11.560;2023-03-05T14:15:28;5.70;71.00
13458;DHT22;6801;53.018;11.560;2023-03-05T14:18:17;5.70;71.30
13458;DHT22;6801;53.018;11.560;2023-03-05T14:21:00;5.80;71.40
13458;DHT22;6801;53.018;11.560;2023-03-05T14:23:35;5.90;71.70
13458;DHT22;6801;53.018;11.560;2023-03-05T14:26:22;5.90;71.70
13458;DHT22;6801;53.018;11.560;2023-03-05T14:28:51;6.00;71.70
13458;DHT22;6801;53.018;11.560;2023-03-05T14:31:20;6.00;70.40
13458;DHT22;6801;53.018;11.560;2023-03-05T14:33:48;6.00;68.40
13458;DHT22;6801;53.018;11.560;2023-03-05T14:36:21;6.00;70.20
13458;DHT22;6801;53.018;11.560;2023-03-05T14:38:50;6.10;71.00
13458;DHT22;6801;53.018;11.560;2023-03-05T14:41:20;6.20;71.00
13458;DHT22;6801;53.018;11.560;2023-03-05T14:43:47;6.30;70.60
13458;DHT22;6801;53.018;11.560;2023-03-05T14:46:14;6.30;70.30
13458;DHT22;6801;53.018;11.560;2023-03-05T14:48:42;6.30;70.30
13458;DHT22;6801;53.018;11.560;2023-03-05T14:51:10;6.20;70.10
13458;DHT22;6801;53.018;11.560;2023-03-05T14:53:39;6.20;69.70
13458;DHT22;6801;53.018;11.560;2023-03-05T14:56:16;6.10;69.90
13458;DHT22;6801;53.018;11.560;2023-03-05T14:58:43;6.10;70.10
13458;DHT22;6801;53.018;11.560;2023-03-05T15:01:11;6.10;69.50
13458;DHT22;6801;53.018;11.560;2023-03-05T15:03:38;6.10;69.40
13458;DHT22;6801;53.018;11.560;2023-03-05T15:06:16;6.10;69.60
13458;DHT22;6801;53.018;11.560;2023-03-05T15:08:43;6.00;69.90
13458;DHT22;6801;53.018;11.560;2023-03-05T15:11:10;6.00;70.20
13458;DHT22;6801;53.018;11.560;2023-03-05T15:13:37;6.00;70.10
13458;DHT22;6801;53.018;11.560;2023-03-05T15:16:05;5.90;69.90
13458;DHT22;6801;53.018;11.560;2023-03-05T15:18:33;5.90;70.40
13458;DHT22;6801;53.018;11.560;2023-03-05T15:21:00;5.90;70.70
13458;DHT22;6801;53.018;11.560;2023-03-05T15:23:29;5.90;70.70
13458;DHT22;6801;53.018;11.560;2023-03-05T15:26:01;5.80;70.90
13458;DHT22;6801;53.018;11.560;2023-03-05T15:28:31;5.90;71.00
13458;DHT22;6801;53.018;11.560;2023-03-05T15:31:00;5.80;71.20
13458;DHT22;6801;53.018;11.560;2023-03-05T15:33:27;5.80;71.20
13458;DHT22;6801;53.018;11.560;2023-03-05T15:35:55;5.80;70.80
13458;DHT22;6801;53.018;11.560;2023-03-05T15:38:22;5.80;70.50
13458;DHT22;6801;53.018;11.560;2023-03-05T15:40:51;5.70;69.60
13458;DHT22;6801;53.018;11.560;2023-03-05T15:43:18;5.70;68.30
13458;DHT22;6801;53.018;11.560;2023-03-05T15:45:45;5.60;68.70
13458;DHT22;6801;53.018;11.560;2023-03-05T15:48:13;5.60;69.00
13458;DHT22;6801;53.018;11.560;2023-03-05T15:50:40;5.60;68.80
13458;DHT22;6801;53.018;11.560;2023-03-05T15:53:08;5.60;69.10
13458;DHT22;6801;53.018;11.560;2023-03-05T15:55:38;5.50;69.00
13458;DHT22;6801;53.018;11.560;2023-03-05T15:58:07;5.50;68.70
13458;DHT22;6801;53.018;11.560;2023-03-05T16:00:35;5.50;69.30
13458;DHT22;6801;53.018;11.560;2023-03-05T16:03:02;5.40;69.00
13458;DHT22;6801;53.018;11.560;2023-03-05T16:05:29;5.40;68.90
13458;DHT22;6801;53.018;11.560;2023-03-05T16:07:58;5.40;68.10